VLG74SS LEBL-LEJR
Flight info
| Callsign | VLG74SS |
|---|---|
| Flight time | 1h 12m |
| Altitude | 31000 |
| Route | LOTOS DCT TORDU DCT DIKUT DCT SOPET DCT VLC DCT SERRA DCT ASTRO DCT POBOS DCT XEBAR DCT YES DCT MAMIS DCT BAZAS DCT VIBAS DCT MGA |
| Aircraft | A320/M-SDE3FGHIRWY/LB1 |
Departure
| Time | 2026-04-28 17:20 |
|---|---|
| Airport | Josep Tarradellas Barcelona-El Prat Airport (LEBL) |
Arrival
| Time | 2026-04-28 18:32 |
|---|---|
| Airport | Jerez Airport (LEJR) |
| Time | Latitude | Longitude | Altitude | Speed | Heading |
|---|---|---|---|---|---|
| 2026-04-28 16:45 | 41.29052 | 2.07685 | 19 ft | 0 kts | 155° |
| 2026-04-28 17:05 | 41.29058 | 2.07681 | 19 ft | 4 kts | 155° |
| 2026-04-28 17:05 | 41.29082 | 2.07666 | 21 ft | 3 kts | 155° |
| 2026-04-28 17:05 | 41.29101 | 2.07661 | 22 ft | 3 kts | 196° |
| 2026-04-28 17:06 | 41.29135 | 2.07686 | 21 ft | 3 kts | 213° |
| 2026-04-28 17:06 | 41.29150 | 2.07703 | 20 ft | 3 kts | 225° |
| 2026-04-28 17:06 | 41.29158 | 2.07716 | 22 ft | 0 kts | 247° |
| 2026-04-28 17:09 | 41.29153 | 2.07703 | 20 ft | 3 kts | 247° |
| 2026-04-28 17:09 | 41.29158 | 2.07674 | 19 ft | 4 kts | 301° |
| 2026-04-28 17:10 | 41.29189 | 2.07647 | 19 ft | 7 kts | 334° |
| 2026-04-28 17:10 | 41.29240 | 2.07616 | 18 ft | 9 kts | 336° |
| 2026-04-28 17:10 | 41.29311 | 2.07574 | 16 ft | 12 kts | 336° |
| 2026-04-28 17:10 | 41.29362 | 2.07627 | 16 ft | 11 kts | 61° |
| 2026-04-28 17:11 | 41.29399 | 2.07729 | 17 ft | 13 kts | 66° |
| 2026-04-28 17:11 | 41.29440 | 2.07852 | 17 ft | 16 kts | 66° |
| 2026-04-28 17:11 | 41.29489 | 2.07993 | 16 ft | 18 kts | 64° |
| 2026-04-28 17:11 | 41.29524 | 2.08095 | 17 ft | 17 kts | 66° |
| 2026-04-28 17:12 | 41.29563 | 2.08215 | 15 ft | 9 kts | 79° |
| 2026-04-28 17:12 | 41.29528 | 2.08281 | 16 ft | 10 kts | 151° |
| 2026-04-28 17:12 | 41.29463 | 2.08319 | 17 ft | 11 kts | 156° |
| 2026-04-28 17:12 | 41.29390 | 2.08364 | 19 ft | 12 kts | 155° |
| 2026-04-28 17:13 | 41.29310 | 2.08413 | 20 ft | 13 kts | 155° |
| 2026-04-28 17:13 | 41.29218 | 2.08468 | 23 ft | 16 kts | 156° |
| 2026-04-28 17:13 | 41.29104 | 2.08536 | 17 ft | 20 kts | 155° |
| 2026-04-28 17:13 | 41.28978 | 2.08613 | 18 ft | 16 kts | 154° |
| 2026-04-28 17:14 | 41.28886 | 2.08668 | 16 ft | 14 kts | 153° |
| 2026-04-28 17:14 | 41.28880 | 2.08781 | 18 ft | 15 kts | 60° |
| 2026-04-28 17:14 | 41.28925 | 2.08913 | 17 ft | 17 kts | 66° |
| 2026-04-28 17:14 | 41.28977 | 2.09065 | 17 ft | 19 kts | 65° |
| 2026-04-28 17:15 | 41.29035 | 2.09237 | 18 ft | 22 kts | 65° |
| 2026-04-28 17:15 | 41.29101 | 2.09427 | 17 ft | 24 kts | 65° |
| 2026-04-28 17:15 | 41.29171 | 2.09632 | 17 ft | 24 kts | 66° |
| 2026-04-28 17:15 | 41.29228 | 2.09799 | 17 ft | 16 kts | 64° |
| 2026-04-28 17:16 | 41.29261 | 2.09896 | 17 ft | 1 kts | 66° |
| 2026-04-28 17:16 | 41.29261 | 2.09897 | 17 ft | 1 kts | 66° |
| 2026-04-28 17:16 | 41.29266 | 2.09910 | 18 ft | 3 kts | 65° |
| 2026-04-28 17:16 | 41.29276 | 2.09941 | 17 ft | 5 kts | 68° |
| 2026-04-28 17:17 | 41.29280 | 2.09994 | 16 ft | 7 kts | 98° |
| 2026-04-28 17:17 | 41.29259 | 2.10076 | 15 ft | 11 kts | 109° |
| 2026-04-28 17:17 | 41.29236 | 2.10185 | 15 ft | 12 kts | 81° |
| 2026-04-28 17:17 | 41.29242 | 2.10293 | 15 ft | 11 kts | 135° |
| 2026-04-28 17:18 | 41.29199 | 2.10264 | 16 ft | 8 kts | 245° |
| 2026-04-28 17:18 | 41.29194 | 2.10250 | 16 ft | 0 kts | 246° |
| 2026-04-28 17:19 | 41.29178 | 2.10202 | 16 ft | 23 kts | 245° |
| 2026-04-28 17:19 | 41.29008 | 2.09705 | 19 ft | 92 kts | 245° |
| 2026-04-28 17:19 | 41.28663 | 2.08700 | 22 ft | 143 kts | 245° |
| 2026-04-28 17:19 | 41.28212 | 2.07370 | 373 ft | 156 kts | 245° |
| 2026-04-28 17:20 | 41.27473 | 2.06429 | 1028 ft | 154 kts | 197° |
| 2026-04-28 17:20 | 41.26744 | 2.06305 | 1296 ft | 166 kts | 181° |
| 2026-04-28 17:20 | 41.25130 | 2.06365 | 1987 ft | 180 kts | 178° |
| 2026-04-28 17:20 | 41.23846 | 2.06359 | 2509 ft | 191 kts | 184° |
| 2026-04-28 17:21 | 41.22488 | 2.06152 | 3031 ft | 204 kts | 190° |
| 2026-04-28 17:21 | 41.21058 | 2.05736 | 3623 ft | 216 kts | 196° |
| 2026-04-28 17:21 | 41.19593 | 2.05109 | 4292 ft | 226 kts | 201° |
| 2026-04-28 17:22 | 41.16523 | 2.03659 | 5752 ft | 242 kts | 200° |
| 2026-04-28 17:22 | 41.14942 | 2.02842 | 6566 ft | 246 kts | 202° |
| 2026-04-28 17:22 | 41.13348 | 2.01969 | 7404 ft | 249 kts | 203° |
| 2026-04-28 17:23 | 41.10103 | 2.00177 | 9053 ft | 256 kts | 202° |
| 2026-04-28 17:23 | 41.08504 | 1.99120 | 9830 ft | 259 kts | 216° |
| 2026-04-28 17:23 | 41.07198 | 1.97408 | 10357 ft | 275 kts | 236° |
| 2026-04-28 17:23 | 41.06393 | 1.95038 | 10645 ft | 297 kts | 255° |
| 2026-04-28 17:24 | 41.05872 | 1.92416 | 11642 ft | 285 kts | 255° |
| 2026-04-28 17:24 | 41.05386 | 1.89968 | 12967 ft | 265 kts | 255° |
| 2026-04-28 17:24 | 41.04796 | 1.87698 | 13903 ft | 259 kts | 249° |
| 2026-04-28 17:24 | 41.04138 | 1.85453 | 14501 ft | 268 kts | 248° |
| 2026-04-28 17:25 | 41.03426 | 1.83067 | 14721 ft | 290 kts | 248° |
| 2026-04-28 17:25 | 41.01826 | 1.77723 | 15022 ft | 334 kts | 248° |
| 2026-04-28 17:25 | 41.00947 | 1.74773 | 15151 ft | 354 kts | 248° |
| 2026-04-28 17:26 | 41.00018 | 1.71659 | 15279 ft | 373 kts | 248° |
| 2026-04-28 17:26 | 40.99043 | 1.68393 | 15406 ft | 390 kts | 248° |
| 2026-04-28 17:26 | 40.98025 | 1.64987 | 15527 ft | 406 kts | 248° |
| 2026-04-28 17:26 | 40.96969 | 1.61459 | 15658 ft | 420 kts | 248° |
| 2026-04-28 17:27 | 40.95877 | 1.57807 | 15804 ft | 433 kts | 248° |
| 2026-04-28 17:27 | 40.94807 | 1.54053 | 16175 ft | 438 kts | 250° |
| 2026-04-28 17:27 | 40.93828 | 1.50171 | 16673 ft | 441 kts | 252° |
| 2026-04-28 17:27 | 40.92636 | 1.46437 | 17104 ft | 444 kts | 239° |
| 2026-04-28 17:28 | 40.90716 | 1.43244 | 17532 ft | 446 kts | 224° |
| 2026-04-28 17:28 | 40.86116 | 1.37664 | 18416 ft | 452 kts | 222° |
| 2026-04-28 17:28 | 40.83785 | 1.34867 | 18844 ft | 455 kts | 222° |
| 2026-04-28 17:29 | 40.81437 | 1.32047 | 19265 ft | 457 kts | 222° |
| 2026-04-28 17:29 | 40.79079 | 1.29214 | 19675 ft | 460 kts | 222° |
| 2026-04-28 17:29 | 40.76701 | 1.26360 | 20062 ft | 463 kts | 222° |
| 2026-04-28 17:30 | 40.71919 | 1.20610 | 20773 ft | 468 kts | 222° |
| 2026-04-28 17:30 | 40.67088 | 1.14792 | 21426 ft | 473 kts | 222° |
| 2026-04-28 17:30 | 40.64653 | 1.11869 | 21753 ft | 475 kts | 222° |
| 2026-04-28 17:31 | 40.62202 | 1.08935 | 22076 ft | 477 kts | 222° |
| 2026-04-28 17:31 | 40.57267 | 1.03039 | 22688 ft | 482 kts | 222° |
| 2026-04-28 17:32 | 40.52511 | 0.96787 | 23266 ft | 486 kts | 227° |
| 2026-04-28 17:32 | 40.50224 | 0.93512 | 23567 ft | 488 kts | 227° |
| 2026-04-28 17:32 | 40.47922 | 0.90221 | 23866 ft | 490 kts | 227° |
| 2026-04-28 17:32 | 40.45610 | 0.86920 | 24195 ft | 491 kts | 227° |
| 2026-04-28 17:33 | 40.43266 | 0.83581 | 24602 ft | 491 kts | 227° |
| 2026-04-28 17:33 | 40.40951 | 0.80287 | 25031 ft | 490 kts | 227° |
| 2026-04-28 17:33 | 40.38636 | 0.76996 | 25467 ft | 489 kts | 227° |
| 2026-04-28 17:33 | 40.37108 | 0.74827 | 25757 ft | 489 kts | 227° |
| 2026-04-28 17:34 | 40.34024 | 0.70454 | 26346 ft | 488 kts | 227° |
| 2026-04-28 17:34 | 40.31724 | 0.67199 | 26785 ft | 487 kts | 227° |
| 2026-04-28 17:34 | 40.29422 | 0.63945 | 27229 ft | 486 kts | 227° |
| 2026-04-28 17:34 | 40.27128 | 0.60707 | 27662 ft | 485 kts | 227° |
| 2026-04-28 17:35 | 40.24835 | 0.57471 | 28103 ft | 484 kts | 227° |
| 2026-04-28 17:35 | 40.22547 | 0.54241 | 28542 ft | 483 kts | 227° |
| 2026-04-28 17:35 | 40.20262 | 0.51020 | 28983 ft | 482 kts | 227° |
| 2026-04-28 17:35 | 40.17981 | 0.47811 | 29411 ft | 481 kts | 227° |
| 2026-04-28 17:36 | 40.15703 | 0.44610 | 29836 ft | 481 kts | 227° |
| 2026-04-28 17:36 | 40.13427 | 0.41416 | 30274 ft | 480 kts | 227° |
| 2026-04-28 17:36 | 40.11154 | 0.38230 | 30701 ft | 479 kts | 227° |
| 2026-04-28 17:36 | 40.08882 | 0.35049 | 30953 ft | 479 kts | 227° |
| 2026-04-28 17:37 | 40.04341 | 0.28698 | 31009 ft | 478 kts | 227° |
| 2026-04-28 17:37 | 39.99800 | 0.22366 | 31009 ft | 478 kts | 227° |
| 2026-04-28 17:38 | 39.95268 | 0.16033 | 31009 ft | 478 kts | 227° |
| 2026-04-28 17:38 | 39.90728 | 0.09714 | 31009 ft | 478 kts | 227° |
| 2026-04-28 17:39 | 39.86180 | 0.03415 | 31008 ft | 477 kts | 227° |
| 2026-04-28 17:40 | 39.79356 | -0.06035 | 31007 ft | 478 kts | 227° |
| 2026-04-28 17:40 | 39.74802 | -0.12323 | 31006 ft | 478 kts | 226° |
| 2026-04-28 17:41 | 39.70218 | -0.18641 | 31006 ft | 478 kts | 226° |
| 2026-04-28 17:41 | 39.65660 | -0.24917 | 31005 ft | 477 kts | 226° |
| 2026-04-28 17:42 | 39.61102 | -0.31171 | 31003 ft | 477 kts | 226° |
| 2026-04-28 17:42 | 39.56531 | -0.37417 | 31002 ft | 477 kts | 226° |
| 2026-04-28 17:43 | 39.51962 | -0.43659 | 31002 ft | 477 kts | 226° |
| 2026-04-28 17:43 | 39.47532 | -0.50047 | 31002 ft | 477 kts | 233° |
| 2026-04-28 17:44 | 39.44179 | -0.55793 | 31002 ft | 477 kts | 233° |
| 2026-04-28 17:44 | 39.40175 | -0.62640 | 31002 ft | 477 kts | 233° |
| 2026-04-28 17:45 | 39.36160 | -0.69472 | 31003 ft | 477 kts | 232° |
| 2026-04-28 17:45 | 39.32135 | -0.76296 | 31004 ft | 478 kts | 232° |
| 2026-04-28 17:46 | 39.28106 | -0.83123 | 31005 ft | 478 kts | 232° |
| 2026-04-28 17:46 | 39.24077 | -0.89936 | 31006 ft | 478 kts | 232° |
| 2026-04-28 17:47 | 39.20050 | -0.96752 | 31007 ft | 478 kts | 232° |
| 2026-04-28 17:47 | 39.16016 | -1.03560 | 31009 ft | 478 kts | 232° |
| 2026-04-28 17:48 | 39.11970 | -1.10356 | 31010 ft | 478 kts | 232° |
| 2026-04-28 17:48 | 39.07919 | -1.17137 | 31011 ft | 478 kts | 232° |
| 2026-04-28 17:49 | 39.03867 | -1.23925 | 31012 ft | 478 kts | 232° |
| 2026-04-28 17:49 | 38.99811 | -1.30702 | 31013 ft | 478 kts | 232° |
| 2026-04-28 17:50 | 38.95749 | -1.37464 | 31013 ft | 478 kts | 232° |
| 2026-04-28 17:50 | 38.91657 | -1.44264 | 31013 ft | 478 kts | 232° |
| 2026-04-28 17:51 | 38.87584 | -1.51009 | 31012 ft | 478 kts | 232° |
| 2026-04-28 17:51 | 38.83515 | -1.57756 | 31011 ft | 478 kts | 232° |
| 2026-04-28 17:52 | 38.79446 | -1.64485 | 31011 ft | 478 kts | 232° |
| 2026-04-28 17:52 | 38.73329 | -1.74565 | 31009 ft | 478 kts | 232° |
| 2026-04-28 17:53 | 38.69245 | -1.81276 | 31007 ft | 478 kts | 232° |
| 2026-04-28 17:53 | 38.65163 | -1.87979 | 31006 ft | 477 kts | 232° |
| 2026-04-28 17:54 | 38.61077 | -1.94670 | 31004 ft | 477 kts | 232° |
| 2026-04-28 17:54 | 38.56984 | -2.01352 | 31003 ft | 477 kts | 232° |
| 2026-04-28 17:55 | 38.52888 | -2.08023 | 31001 ft | 477 kts | 232° |
| 2026-04-28 17:55 | 38.48787 | -2.14681 | 31001 ft | 477 kts | 232° |
| 2026-04-28 17:56 | 38.44683 | -2.21342 | 30999 ft | 477 kts | 232° |
| 2026-04-28 17:56 | 38.40584 | -2.27997 | 30993 ft | 477 kts | 232° |
| 2026-04-28 17:57 | 38.36469 | -2.34630 | 31000 ft | 477 kts | 230° |
| 2026-04-28 17:57 | 38.31953 | -2.40826 | 31000 ft | 477 kts | 226° |
| 2026-04-28 17:58 | 38.27386 | -2.46957 | 31001 ft | 477 kts | 226° |
| 2026-04-28 17:58 | 38.22783 | -2.53127 | 31002 ft | 477 kts | 226° |
| 2026-04-28 17:59 | 38.18207 | -2.59248 | 31002 ft | 477 kts | 226° |
| 2026-04-28 17:59 | 38.13629 | -2.65362 | 31004 ft | 478 kts | 226° |
| 2026-04-28 18:00 | 38.09046 | -2.71470 | 31005 ft | 478 kts | 226° |
| 2026-04-28 18:00 | 38.04461 | -2.77569 | 31004 ft | 477 kts | 226° |
| 2026-04-28 18:01 | 37.99882 | -2.83659 | 31003 ft | 477 kts | 226° |
| 2026-04-28 18:01 | 37.95291 | -2.89740 | 31000 ft | 477 kts | 226° |
| 2026-04-28 18:02 | 37.90698 | -2.95807 | 30999 ft | 477 kts | 226° |
| 2026-04-28 18:02 | 37.86107 | -3.01865 | 30999 ft | 477 kts | 226° |
| 2026-04-28 18:03 | 37.81513 | -3.07927 | 31000 ft | 477 kts | 226° |
| 2026-04-28 18:03 | 37.76913 | -3.13972 | 31001 ft | 477 kts | 226° |
| 2026-04-28 18:04 | 37.72299 | -3.20016 | 31003 ft | 478 kts | 226° |
| 2026-04-28 18:04 | 37.67657 | -3.26098 | 31004 ft | 477 kts | 226° |
| 2026-04-28 18:05 | 37.63823 | -3.31109 | 31004 ft | 477 kts | 226° |
| 2026-04-28 18:05 | 37.58427 | -3.38149 | 31005 ft | 478 kts | 226° |
| 2026-04-28 18:06 | 37.53809 | -3.44171 | 31007 ft | 478 kts | 226° |
| 2026-04-28 18:06 | 37.49188 | -3.50186 | 31009 ft | 478 kts | 226° |
| 2026-04-28 18:07 | 37.44558 | -3.56190 | 31010 ft | 478 kts | 226° |
| 2026-04-28 18:07 | 37.39920 | -3.62181 | 31009 ft | 478 kts | 226° |
| 2026-04-28 18:08 | 37.35289 | -3.68168 | 31008 ft | 478 kts | 226° |
| 2026-04-28 18:08 | 37.30660 | -3.74148 | 31005 ft | 477 kts | 226° |
| 2026-04-28 18:09 | 37.26025 | -3.80111 | 31002 ft | 477 kts | 225° |
| 2026-04-28 18:09 | 37.21384 | -3.86059 | 31000 ft | 477 kts | 225° |
| 2026-04-28 18:10 | 37.16742 | -3.92012 | 31000 ft | 477 kts | 226° |
| 2026-04-28 18:10 | 37.12102 | -3.97970 | 31002 ft | 477 kts | 225° |
| 2026-04-28 18:11 | 37.07452 | -4.03912 | 31003 ft | 477 kts | 225° |
| 2026-04-28 18:11 | 37.02800 | -4.09838 | 31004 ft | 478 kts | 225° |
| 2026-04-28 18:12 | 36.98118 | -4.15814 | 31005 ft | 478 kts | 225° |
| 2026-04-28 18:12 | 36.93459 | -4.21731 | 31004 ft | 477 kts | 225° |
| 2026-04-28 18:13 | 36.88796 | -4.27635 | 31001 ft | 477 kts | 225° |
| 2026-04-28 18:13 | 36.84724 | -4.34127 | 31008 ft | 477 kts | 242° |
| 2026-04-28 18:14 | 36.83448 | -4.37935 | 30997 ft | 477 kts | 253° |
| 2026-04-28 18:14 | 36.82732 | -4.41981 | 30554 ft | 478 kts | 264° |
| 2026-04-28 18:14 | 36.82674 | -4.46111 | 30325 ft | 478 kts | 274° |
| 2026-04-28 18:14 | 36.83115 | -4.50233 | 29852 ft | 480 kts | 279° |
| 2026-04-28 18:15 | 36.83637 | -4.54349 | 29375 ft | 481 kts | 278° |
| 2026-04-28 18:15 | 36.84158 | -4.58476 | 28837 ft | 481 kts | 278° |
| 2026-04-28 18:15 | 36.84672 | -4.62586 | 28245 ft | 479 kts | 278° |
| 2026-04-28 18:15 | 36.85183 | -4.66690 | 27646 ft | 479 kts | 278° |
| 2026-04-28 18:16 | 36.85693 | -4.70802 | 27045 ft | 480 kts | 278° |
| 2026-04-28 18:16 | 36.86203 | -4.74920 | 26443 ft | 481 kts | 278° |
| 2026-04-28 18:16 | 36.86709 | -4.79019 | 25843 ft | 473 kts | 278° |
| 2026-04-28 18:16 | 36.87046 | -4.81746 | 25436 ft | 467 kts | 278° |
| 2026-04-28 18:17 | 36.87536 | -4.85718 | 24831 ft | 459 kts | 278° |
| 2026-04-28 18:17 | 36.88017 | -4.89620 | 24234 ft | 451 kts | 278° |
| 2026-04-28 18:17 | 36.88488 | -4.93459 | 23634 ft | 444 kts | 278° |
| 2026-04-28 18:17 | 36.88952 | -4.97239 | 23069 ft | 436 kts | 278° |
| 2026-04-28 18:18 | 36.89407 | -5.00951 | 22516 ft | 429 kts | 278° |
| 2026-04-28 18:18 | 36.89853 | -5.04608 | 21959 ft | 422 kts | 278° |
| 2026-04-28 18:18 | 36.90290 | -5.08214 | 21334 ft | 418 kts | 278° |
| 2026-04-28 18:18 | 36.90577 | -5.10582 | 20923 ft | 416 kts | 278° |
| 2026-04-28 18:19 | 36.91153 | -5.15336 | 20082 ft | 409 kts | 278° |
| 2026-04-28 18:19 | 36.91570 | -5.18808 | 19457 ft | 402 kts | 278° |
| 2026-04-28 18:19 | 36.91979 | -5.22247 | 18832 ft | 398 kts | 278° |
| 2026-04-28 18:19 | 36.92386 | -5.25665 | 18213 ft | 397 kts | 278° |
| 2026-04-28 18:20 | 36.92791 | -5.29065 | 17580 ft | 395 kts | 278° |
| 2026-04-28 18:20 | 36.93000 | -5.32506 | 16938 ft | 386 kts | 269° |
| 2026-04-28 18:20 | 36.92756 | -5.35768 | 16314 ft | 370 kts | 259° |
| 2026-04-28 18:20 | 36.92244 | -5.38869 | 15695 ft | 363 kts | 258° |
| 2026-04-28 18:21 | 36.91729 | -5.41963 | 15066 ft | 363 kts | 258° |
| 2026-04-28 18:21 | 36.91216 | -5.45048 | 14440 ft | 363 kts | 258° |
| 2026-04-28 18:21 | 36.90706 | -5.48116 | 13806 ft | 354 kts | 258° |
| 2026-04-28 18:21 | 36.90214 | -5.51070 | 13183 ft | 341 kts | 258° |
| 2026-04-28 18:22 | 36.89750 | -5.53880 | 12656 ft | 328 kts | 258° |
| 2026-04-28 18:22 | 36.89297 | -5.56626 | 12166 ft | 317 kts | 258° |
| 2026-04-28 18:22 | 36.88855 | -5.59283 | 11663 ft | 310 kts | 258° |
| 2026-04-28 18:22 | 36.88413 | -5.61914 | 11166 ft | 310 kts | 258° |
| 2026-04-28 18:23 | 36.87969 | -5.64546 | 10659 ft | 307 kts | 258° |
| 2026-04-28 18:23 | 36.87632 | -5.66548 | 10270 ft | 300 kts | 258° |
| 2026-04-28 18:23 | 36.87207 | -5.69062 | 9769 ft | 292 kts | 258° |
| 2026-04-28 18:23 | 36.86792 | -5.71514 | 9064 ft | 285 kts | 258° |
| 2026-04-28 18:24 | 36.86390 | -5.73900 | 8620 ft | 276 kts | 257° |
| 2026-04-28 18:24 | 36.86131 | -5.75432 | 8363 ft | 269 kts | 257° |
| 2026-04-28 18:24 | 36.85672 | -5.78435 | 7880 ft | 258 kts | 266° |
| 2026-04-28 18:24 | 36.85926 | -5.80609 | 7520 ft | 253 kts | 290° |
| 2026-04-28 18:25 | 36.86858 | -5.82438 | 7156 ft | 250 kts | 314° |
| 2026-04-28 18:25 | 36.88280 | -5.83637 | 6795 ft | 246 kts | 334° |
| 2026-04-28 18:25 | 36.89792 | -5.84584 | 6444 ft | 240 kts | 330° |
| 2026-04-28 18:26 | 36.92481 | -5.86944 | 5702 ft | 233 kts | 319° |
| 2026-04-28 18:26 | 36.93614 | -5.88362 | 5374 ft | 228 kts | 307° |
| 2026-04-28 18:26 | 36.94356 | -5.90063 | 5053 ft | 221 kts | 288° |
| 2026-04-28 18:26 | 36.94634 | -5.91951 | 4680 ft | 218 kts | 270° |
| 2026-04-28 18:27 | 36.94429 | -5.93852 | 4141 ft | 224 kts | 250° |
| 2026-04-28 18:27 | 36.93746 | -5.95548 | 3856 ft | 214 kts | 232° |
| 2026-04-28 18:27 | 36.92746 | -5.96829 | 3625 ft | 201 kts | 214° |
| 2026-04-28 18:27 | 36.91566 | -5.97648 | 3380 ft | 188 kts | 198° |
| 2026-04-28 18:28 | 36.90372 | -5.98231 | 3175 ft | 180 kts | 198° |
| 2026-04-28 18:28 | 36.89218 | -5.98798 | 2929 ft | 176 kts | 198° |
| 2026-04-28 18:28 | 36.88083 | -5.99354 | 2695 ft | 174 kts | 198° |
| 2026-04-28 18:28 | 36.86955 | -5.99906 | 2465 ft | 174 kts | 198° |
| 2026-04-28 18:29 | 36.85836 | -6.00454 | 2255 ft | 172 kts | 197° |
| 2026-04-28 18:29 | 36.84732 | -6.00994 | 2025 ft | 169 kts | 198° |
| 2026-04-28 18:29 | 36.83646 | -6.01525 | 1810 ft | 168 kts | 197° |
| 2026-04-28 18:29 | 36.82560 | -6.02056 | 1588 ft | 167 kts | 196° |
| 2026-04-28 18:30 | 36.81480 | -6.02584 | 1366 ft | 162 kts | 196° |
| 2026-04-28 18:30 | 36.80813 | -6.02912 | 1222 ft | 151 kts | 197° |
| 2026-04-28 18:30 | 36.79552 | -6.03528 | 976 ft | 143 kts | 195° |
| 2026-04-28 18:30 | 36.78647 | -6.03972 | 791 ft | 138 kts | 197° |
| 2026-04-28 18:31 | 36.77765 | -6.04402 | 613 ft | 134 kts | 198° |
| 2026-04-28 18:31 | 36.76901 | -6.04815 | 460 ft | 133 kts | 198° |
| 2026-04-28 18:31 | 36.76050 | -6.05240 | 277 ft | 131 kts | 197° |
| 2026-04-28 18:31 | 36.75206 | -6.05648 | 112 ft | 127 kts | 199° |
| 2026-04-28 18:32 | 36.74537 | -6.05966 | 89 ft | 65 kts | 202° |
| 2026-04-28 18:32 | 36.74222 | -6.06128 | 90 ft | 43 kts | 207° |
| 2026-04-28 18:32 | 36.74054 | -6.06302 | 87 ft | 15 kts | 227° |
| 2026-04-28 18:32 | 36.74009 | -6.06365 | 87 ft | 11 kts | 236° |
| 2026-04-28 18:33 | 36.74036 | -6.06433 | 86 ft | 11 kts | 349° |
| 2026-04-28 18:33 | 36.74113 | -6.06422 | 88 ft | 12 kts | 26° |
| 2026-04-28 18:33 | 36.74193 | -6.06365 | 85 ft | 14 kts | 27° |
| 2026-04-28 18:33 | 36.74296 | -6.06313 | 87 ft | 17 kts | 21° |
| 2026-04-28 18:34 | 36.74413 | -6.06254 | 88 ft | 19 kts | 22° |
| 2026-04-28 18:34 | 36.74546 | -6.06189 | 88 ft | 22 kts | 21° |
| 2026-04-28 18:34 | 36.74667 | -6.06130 | 88 ft | 17 kts | 21° |
| 2026-04-28 18:34 | 36.74734 | -6.06115 | 87 ft | 0 kts | 342° |
| 2026-04-28 18:35 | 36.74751 | -6.06138 | 88 ft | 7 kts | 299° |
| 2026-04-28 18:35 | 36.74774 | -6.06212 | 85 ft | 10 kts | 291° |
| 2026-04-28 18:35 | 36.74824 | -6.06274 | 87 ft | 12 kts | 356° |
| 2026-04-28 18:36 | 36.74903 | -6.06235 | 88 ft | 12 kts | 18° |
| 2026-04-28 18:36 | 36.74950 | -6.06226 | 87 ft | 5 kts | 328° |
| 2026-04-28 18:36 | 36.74969 | -6.06274 | 87 ft | 5 kts | 291° |
| 2026-04-28 18:36 | 36.74976 | -6.06295 | 85 ft | 4 kts | 291° |
| 2026-04-28 18:37 | 36.74980 | -6.06308 | 89 ft | 0 kts | 291° |